Aeroporto :
LOGIN :

Iscrizione | Disclaimer

   EN    FR    IT 

 










Sommario :    VFR   VFR Marginale   IFR   IFR Intensivo   IFR Molto Intensivo
Visibilità : 
Base nubi : 
>= 8 km
>= 3000ft
5 / 8 km
1000 / 3000 ft
1500m / 5 km
500 / 1000 ft
800 / 1500m
200 / 500 ft
< 800m
< 200 ft
Simboli :   Temporali  Nebbia  Neve Forte  Precipitazioni Forti  Vento > 20 kt
SIGMETs :   Varie  Temporali  Ghiacco  Turbolenza  Onda orograficha  Ceneri Vulcaniche






- Altitudine del aeroporto : 290 ft
- Codice IATA : LAI


LFRO - Lannion

ULTIMO METAR :
  • 301900Z AUTO 05010KT 350V090 9999 FEW026 BKN039 07/01 Q1028

METARs OBSOLETI :
  • 301830Z AUTO 04010G20KT 330V080 9999 FEW026 07/02 Q1028
  • 301800Z AUTO 03012G23KT 340V070 9999 FEW029 SCT036 07/01 Q1028
  • 301730Z AUTO 03011G27KT 340V100 9999 SCT029 BKN036 07/01 Q1028
  • 301700Z AUTO 03014G29KT 350V070 9999 BKN029 07/01 Q1028
  • 301630Z AUTO 02015G27KT 350V080 9999 BKN029 BKN035 08/01 Q1028

Previsioni scadute.



MetMap, La meteo Aeronautica in un colpo d'occhio ! - Copyright ORBIFLY Dicembre 2007 - Disclaimer

ORBIFLY MET'MAP TEAM :

Programmazione e sviluppo : Alexandra Zaïnal
Concezione : Baudouin d'Aumeries
Aiuto per la programmazione : Marc-Olivier Méhu
Supporto tecnico e logistico : Manuel Goepfert
Aiuto per la traduzione : Arnaldo La Scala

Contatto : metmap@orbifly.com




FONTI E CREDITI :

   NOAA